createdAt,value
2019-04-20T00:00:07.624Z,301.82
2019-04-20T00:01:05.215Z,301.52
2019-04-20T00:02:07.231Z,302.01
2019-04-20T00:03:03.796Z,301.87
2019-04-20T00:04:03.185Z,301.89
2019-04-20T00:05:03.408Z,301.90
2019-04-20T00:06:03.527Z,301.91
2019-04-20T00:07:03.931Z,301.64
2019-04-20T00:08:09.089Z,301.98
2019-04-20T00:09:11.847Z,301.73
2019-04-20T00:10:10.938Z,301.84
2019-04-20T00:11:10.681Z,301.93
2019-04-20T00:12:10.743Z,301.96
2019-04-20T00:13:16.587Z,302.02
2019-04-20T00:14:08.959Z,301.92
2019-04-20T00:15:04.825Z,301.80
2019-04-20T00:16:04.033Z,301.81
2019-04-20T00:17:03.031Z,302.06
2019-04-20T00:18:05.383Z,301.93
2019-04-20T00:19:05.218Z,301.99
2019-04-20T00:20:09.651Z,301.89
2019-04-20T00:21:08.643Z,302.06
2019-04-20T00:22:07.937Z,301.95
2019-04-20T00:23:03.798Z,301.94
2019-04-20T00:24:10.326Z,302.08
2019-04-20T00:25:09.020Z,301.90
2019-04-20T00:26:13.188Z,301.99
2019-04-20T00:27:30.327Z,302.17
2019-04-20T00:28:19.898Z,302.00
2019-04-20T00:29:21.708Z,302.05
2019-04-20T00:30:24.848Z,301.88
2019-04-20T00:31:20.729Z,301.91
2019-04-20T00:32:15.569Z,302.06
2019-04-20T00:33:14.705Z,302.15
2019-04-20T00:34:13.164Z,302.08
2019-04-20T00:35:04.131Z,301.91
2019-04-20T00:36:03.235Z,302.04
2019-04-20T00:37:02.483Z,301.87
2019-04-20T00:38:03.375Z,301.97
2019-04-20T00:39:06.410Z,301.95
2019-04-20T00:40:04.233Z,301.86
2019-04-20T00:41:07.172Z,301.78
2019-04-20T00:42:06.574Z,301.82
2019-04-20T00:43:04.592Z,301.94
2019-04-20T00:44:07.225Z,301.84
2019-04-20T00:45:10.717Z,301.93
2019-04-20T00:46:08.249Z,301.87
2019-04-20T00:47:18.126Z,301.75
2019-04-20T00:48:18.417Z,301.93
2019-04-20T00:49:20.669Z,302.11
2019-04-20T00:50:22.845Z,301.88
2019-04-20T00:51:25.894Z,301.91
2019-04-20T00:52:31.107Z,301.92
2019-04-20T00:53:14.874Z,302.09
2019-04-20T00:54:04.014Z,302.01
2019-04-20T00:55:02.409Z,301.98
2019-04-20T00:56:03.401Z,302.27
2019-04-20T00:57:13.255Z,302.12
2019-04-20T00:58:14.755Z,302.04
2019-04-20T00:59:18.164Z,302.11
2019-04-20T01:00:21.952Z,301.91
2019-04-20T01:01:20.279Z,302.00
2019-04-20T01:02:19.408Z,301.95
2019-04-20T01:03:20.736Z,302.14
2019-04-20T01:04:20.291Z,302.21
2019-04-20T01:05:17.975Z,302.15
2019-04-20T01:06:24.790Z,301.98
2019-04-20T01:07:16.398Z,302.05
2019-04-20T01:08:06.056Z,302.05
2019-04-20T01:09:03.293Z,302.05
2019-04-20T01:10:02.681Z,302.12
2019-04-20T01:11:02.712Z,301.95
2019-04-20T01:12:05.173Z,302.10
2019-04-20T01:13:08.730Z,301.97
2019-04-20T01:14:07.922Z,302.10
2019-04-20T01:15:07.411Z,301.99
2019-04-20T01:16:08.741Z,302.14
2019-04-20T01:17:11.646Z,302.20
2019-04-20T01:18:03.034Z,302.18
2019-04-20T01:19:02.044Z,302.13
2019-04-20T01:20:02.104Z,302.32
2019-04-20T01:21:06.743Z,302.08
2019-04-20T01:22:09.145Z,302.17
2019-04-20T01:23:08.730Z,302.13
2019-04-20T01:24:05.389Z,302.24
2019-04-20T01:25:11.261Z,302.14
2019-04-20T01:26:08.881Z,301.99
2019-04-20T01:27:05.658Z,302.15
2019-04-20T01:28:20.063Z,302.27
2019-04-20T01:29:12.126Z,301.84
2019-04-20T01:30:13.047Z,302.19
2019-04-20T01:31:15.708Z,302.05
2019-04-20T01:32:15.614Z,302.05
2019-04-20T01:33:16.407Z,302.28
2019-04-20T01:34:14.632Z,302.23
2019-04-20T01:35:19.701Z,301.89
2019-04-20T01:36:24.009Z,302.21
2019-04-20T01:37:19.531Z,302.05
2019-04-20T01:38:20.922Z,302.25
2019-04-20T01:39:13.621Z,302.07
2019-04-20T01:40:05.871Z,301.96
2019-04-20T01:41:01.829Z,302.31
2019-04-20T01:42:02.391Z,302.17
2019-04-20T01:43:01.802Z,302.24
2019-04-20T01:44:02.598Z,302.24
2019-04-20T01:45:05.552Z,302.16
2019-04-20T01:46:11.182Z,302.18
2019-04-20T01:47:06.269Z,302.28
2019-04-20T01:48:03.087Z,301.81
2019-04-20T01:49:07.906Z,302.07
2019-04-20T01:50:08.575Z,302.01
2019-04-20T01:51:10.026Z,302.15
2019-04-20T01:52:13.052Z,302.08
2019-04-20T01:53:14.938Z,302.05
2019-04-20T01:54:17.728Z,302.14
2019-04-20T01:55:21.193Z,301.96
2019-04-20T01:56:18.129Z,302.07
2019-04-20T01:57:11.680Z,302.19
2019-04-20T01:58:25.481Z,302.09
2019-04-20T01:59:16.460Z,302.21
2019-04-20T02:00:10.707Z,302.12
2019-04-20T02:01:09.724Z,302.05
2019-04-20T02:02:07.807Z,301.86
2019-04-20T02:03:05.574Z,302.07
2019-04-20T02:04:03.327Z,301.90
2019-04-20T02:05:11.325Z,301.98
2019-04-20T02:06:08.447Z,302.23
2019-04-20T02:07:04.937Z,301.98
2019-04-20T02:08:01.919Z,302.08
2019-04-20T02:09:06.729Z,301.81
2019-04-20T02:10:06.340Z,301.99
2019-04-20T02:11:05.481Z,302.10
2019-04-20T02:12:08.256Z,302.15
2019-04-20T02:13:04.733Z,302.15
2019-04-20T02:14:04.936Z,302.05
2019-04-20T02:15:04.698Z,302.08
2019-04-20T02:16:13.935Z,301.95
2019-04-20T02:17:09.538Z,301.98
2019-04-20T02:18:16.470Z,302.07
2019-04-20T02:19:21.446Z,302.12
2019-04-20T02:20:23.343Z,302.19
2019-04-20T02:21:19.828Z,302.14
2019-04-20T02:22:13.602Z,302.23
2019-04-20T02:23:14.564Z,302.40
2019-04-20T02:24:05.727Z,302.14
2019-04-20T02:25:01.707Z,302.18
2019-04-20T02:26:01.401Z,302.33
2019-04-20T02:27:01.985Z,302.16
2019-04-20T02:28:18.946Z,302.16
2019-04-20T02:29:24.877Z,302.15
2019-04-20T02:30:30.114Z,302.44
2019-04-20T02:31:52.929Z,302.40
2019-04-20T02:32:33.277Z,302.35
2019-04-20T02:33:47.523Z,302.38
2019-04-20T02:34:40.023Z,302.44
2019-04-20T02:35:40.420Z,302.18
2019-04-20T02:36:40.357Z,302.18
2019-04-20T02:37:59.866Z,302.45
2019-04-20T02:38:58.399Z,302.52
2019-04-20T02:40:47.671Z,302.39
2019-04-20T02:41:51.436Z,302.41
2019-04-20T02:42:58.014Z,302.47
2019-04-20T02:45:40.756Z,302.28
2019-04-20T02:46:31.212Z,302.36
2019-04-20T02:48:33.718Z,302.51
2019-04-20T02:52:46.062Z,302.39
2019-04-20T02:53:46.602Z,302.43
2019-04-20T02:55:38.098Z,302.30
2019-04-20T02:56:43.151Z,302.57
2019-04-20T02:57:41.878Z,302.53
2019-04-20T02:58:34.847Z,302.31
2019-04-20T02:59:54.236Z,302.50
2019-04-20T03:00:49.541Z,302.35
2019-04-20T03:01:23.322Z,302.27
2019-04-20T03:02:19.037Z,302.64
2019-04-20T03:03:13.420Z,302.57
2019-04-20T03:04:05.438Z,302.45
2019-04-20T03:05:13.372Z,302.59
2019-04-20T03:06:18.491Z,302.23
2019-04-20T03:07:15.702Z,302.39
2019-04-20T03:08:20.261Z,302.40
2019-04-20T03:09:25.471Z,302.25
2019-04-20T03:10:26.514Z,302.55
2019-04-20T03:11:33.291Z,302.36
2019-04-20T03:12:30.395Z,302.30
2019-04-20T03:13:25.370Z,302.35
2019-04-20T03:14:18.573Z,302.66
2019-04-20T03:15:26.448Z,302.38
2019-04-20T03:16:22.184Z,302.35
2019-04-20T03:17:29.681Z,302.31
2019-04-20T03:18:19.727Z,302.38
2019-04-20T03:19:18.675Z,302.32
2019-04-20T03:20:24.430Z,302.55
2019-04-20T03:21:24.842Z,302.22
2019-04-20T03:22:35.282Z,302.44
2019-04-20T03:24:29.551Z,302.49
2019-04-20T03:25:24.212Z,302.45
2019-04-20T03:26:22.532Z,302.67
2019-04-20T03:27:19.473Z,302.55
2019-04-20T03:28:21.955Z,302.43
2019-04-20T03:29:18.843Z,302.67
2019-04-20T03:31:05.581Z,302.34
2019-04-20T03:31:41.536Z,302.54
2019-04-20T03:33:47.498Z,302.35
2019-04-20T03:34:48.696Z,302.45
2019-04-20T03:35:23.929Z,302.69
2019-04-20T03:36:25.142Z,302.63
2019-04-20T03:37:26.702Z,302.51
2019-04-20T03:38:20.210Z,302.45
2019-04-20T03:39:22.696Z,302.62
2019-04-20T03:40:19.158Z,302.68
2019-04-20T03:41:16.163Z,302.49
2019-04-20T03:42:03.665Z,302.55
2019-04-20T03:43:02.005Z,302.40
2019-04-20T03:44:07.662Z,302.80
2019-04-20T03:45:08.665Z,302.58
2019-04-20T03:46:07.798Z,302.48
2019-04-20T03:47:06.848Z,302.58
2019-04-20T03:48:14.116Z,302.48
2019-04-20T03:49:20.255Z,302.75
2019-04-20T03:50:27.314Z,302.52
2019-04-20T03:51:27.927Z,302.84
2019-04-20T03:52:19.205Z,302.50
2019-04-20T03:53:31.083Z,302.74
2019-04-20T03:54:16.044Z,302.58
2019-04-20T03:55:24.310Z,302.60
2019-04-20T03:56:26.814Z,302.55
2019-04-20T03:57:26.543Z,302.80
2019-04-20T03:58:19.785Z,302.57
2019-04-20T03:59:16.199Z,302.44
2019-04-20T04:00:21.943Z,302.53
2019-04-20T04:01:33.089Z,302.70
2019-04-20T04:02:29.876Z,302.41
2019-04-20T04:03:31.749Z,302.71
2019-04-20T04:04:25.462Z,302.51
2019-04-20T04:05:19.207Z,302.68
2019-04-20T04:06:12.365Z,302.53
2019-04-20T04:07:12.197Z,302.53
2019-04-20T04:08:12.173Z,302.48
2019-04-20T04:09:10.222Z,302.51
2019-04-20T04:10:16.879Z,302.79
2019-04-20T04:11:19.977Z,302.43
2019-04-20T04:12:12.201Z,302.68
2019-04-20T04:13:01.190Z,302.56
2019-04-20T04:14:00.755Z,302.46
2019-04-20T04:15:00.175Z,302.73
2019-04-20T04:16:04.894Z,302.58
2019-04-20T04:17:02.970Z,302.51
2019-04-20T04:18:05.991Z,302.51
2019-04-20T04:19:11.889Z,302.58
2019-04-20T04:20:08.120Z,302.65
2019-04-20T04:21:07.924Z,302.61
2019-04-20T04:22:12.450Z,302.84
2019-04-20T04:23:19.582Z,302.70
2019-04-20T04:24:12.896Z,302.92
2019-04-20T04:25:14.829Z,302.58
2019-04-20T04:26:20.410Z,302.76
2019-04-20T04:27:16.168Z,302.75
2019-04-20T04:28:13.752Z,302.86
2019-04-20T04:29:25.711Z,302.64
2019-04-20T04:30:14.916Z,302.91
2019-04-20T04:31:20.396Z,302.66
2019-04-20T04:32:33.282Z,302.82
2019-04-20T04:33:40.282Z,302.85
2019-04-20T04:34:20.954Z,302.89
2019-04-20T04:35:14.173Z,302.92
2019-04-20T04:36:17.710Z,303.03
2019-04-20T04:37:20.211Z,302.86
2019-04-20T04:39:20.989Z,302.89
2019-04-20T04:40:25.331Z,302.85
2019-04-20T04:42:22.619Z,302.87
2019-04-20T04:43:19.789Z,302.89
2019-04-20T04:44:15.126Z,302.93
2019-04-20T04:45:06.236Z,302.77
2019-04-20T04:46:01.720Z,302.96
2019-04-20T04:47:04.769Z,302.96
2019-04-20T04:48:01.990Z,302.68
2019-04-20T04:49:08.441Z,302.85
2019-04-20T04:50:11.051Z,303.02
2019-04-20T04:51:08.379Z,303.05
2019-04-20T04:52:06.185Z,303.03
2019-04-20T04:53:09.093Z,303.04
2019-04-20T04:54:12.921Z,302.87
2019-04-20T04:55:12.124Z,303.08
2019-04-20T04:56:07.379Z,303.33
2019-04-20T04:57:01.143Z,303.03
2019-04-20T04:58:00.209Z,303.04
2019-04-20T04:59:00.302Z,302.88
2019-04-20T04:59:59.682Z,303.10
2019-04-20T05:01:07.353Z,303.02
2019-04-20T05:02:02.148Z,303.17
2019-04-20T05:03:07.004Z,303.27
2019-04-20T05:04:23.251Z,302.99
2019-04-20T05:05:25.463Z,302.97
2019-04-20T05:06:19.728Z,303.00
2019-04-20T05:07:11.409Z,302.80
2019-04-20T05:08:10.105Z,303.07
2019-04-20T05:09:05.255Z,303.07
2019-04-20T05:10:01.213Z,302.97
2019-04-20T05:11:00.628Z,303.13
2019-04-20T05:12:05.432Z,303.28
2019-04-20T05:13:00.831Z,303.13
2019-04-20T05:14:04.952Z,303.06
2019-04-20T05:15:07.932Z,302.98
2019-04-20T05:16:16.799Z,303.03
2019-04-20T05:17:15.106Z,303.16
2019-04-20T05:18:20.578Z,303.17
2019-04-20T05:19:24.732Z,303.20
2019-04-20T05:20:18.095Z,303.14
2019-04-20T05:21:23.022Z,303.21
2019-04-20T05:22:19.371Z,303.18
2019-04-20T05:23:19.085Z,303.25
2019-04-20T05:24:17.918Z,303.26
2019-04-20T05:25:21.569Z,303.08
2019-04-20T05:26:19.989Z,303.12
2019-04-20T05:27:20.760Z,303.15
2019-04-20T05:28:13.122Z,303.21
2019-04-20T05:29:08.560Z,303.08
2019-04-20T05:30:01.255Z,303.17
2019-04-20T05:31:02.959Z,303.12
2019-04-20T05:32:08.116Z,303.55
2019-04-20T05:33:07.821Z,303.29
2019-04-20T05:35:21.543Z,303.45
2019-04-20T05:36:18.694Z,303.39
2019-04-20T05:37:29.074Z,303.23
2019-04-20T05:38:22.985Z,303.15
2019-04-20T05:39:26.841Z,303.18
2019-04-20T05:40:22.296Z,303.41
2019-04-20T05:41:16.949Z,303.43
2019-04-20T05:42:28.462Z,303.29
2019-04-20T05:43:24.611Z,303.30
2019-04-20T05:44:16.480Z,303.26
2019-04-20T05:45:18.169Z,303.05
2019-04-20T05:46:22.064Z,303.35
2019-04-20T05:47:23.825Z,303.39
2019-04-20T05:48:16.462Z,303.45
2019-04-20T05:49:23.362Z,303.33
2019-04-20T05:50:16.523Z,303.10
2019-04-20T05:51:26.876Z,303.34
2019-04-20T05:52:42.584Z,303.46
2019-04-20T05:53:19.319Z,303.06
2019-04-20T05:54:23.564Z,303.43
2019-04-20T05:55:20.833Z,303.33
2019-04-20T05:56:22.242Z,303.38
2019-04-20T05:57:25.061Z,303.41
2019-04-20T05:58:24.636Z,303.40
2019-04-20T05:59:19.214Z,303.40
2019-04-20T06:00:21.813Z,303.34
2019-04-20T06:01:22.854Z,303.28
2019-04-20T06:02:25.011Z,303.41
2019-04-20T06:03:22.817Z,303.46
2019-04-20T06:04:28.668Z,303.58
2019-04-20T06:05:21.941Z,303.49
2019-04-20T06:06:22.077Z,303.49
2019-04-20T06:07:26.016Z,303.33
2019-04-20T06:08:34.256Z,303.55
2019-04-20T06:09:24.051Z,303.36
2019-04-20T06:10:22.229Z,303.31
2019-04-20T06:11:22.180Z,303.20
2019-04-20T06:12:22.362Z,303.49
2019-04-20T06:13:15.960Z,303.28
2019-04-20T06:14:08.165Z,303.67
2019-04-20T06:15:13.229Z,303.30
2019-04-20T06:16:14.195Z,303.47
2019-04-20T06:17:20.920Z,303.65
2019-04-20T06:18:16.307Z,303.43
2019-04-20T06:19:26.408Z,303.57
2019-04-20T06:20:20.258Z,303.72
2019-04-20T06:21:24.975Z,303.40
2019-04-20T06:22:27.208Z,303.54
2019-04-20T06:23:24.143Z,303.63
2019-04-20T06:24:26.823Z,303.73
2019-04-20T06:25:40.818Z,303.65
2019-04-20T06:27:21.534Z,303.74
2019-04-20T06:28:20.349Z,303.77
2019-04-20T06:29:16.342Z,303.42
2019-04-20T06:30:14.084Z,303.72
2019-04-20T06:31:26.485Z,303.74
2019-04-20T06:32:28.563Z,303.56
2019-04-20T06:33:31.307Z,303.65
2019-04-20T06:35:33.616Z,303.62
2019-04-20T06:36:27.580Z,303.77
2019-04-20T06:37:17.944Z,303.78
2019-04-20T06:38:34.830Z,303.72
2019-04-20T06:39:24.140Z,303.78
2019-04-20T06:40:37.286Z,303.45
2019-04-20T06:41:33.037Z,303.48
2019-04-20T06:42:18.004Z,303.70
2019-04-20T06:43:19.172Z,303.77
2019-04-20T06:44:29.164Z,303.59
2019-04-20T06:45:27.713Z,303.98
2019-04-20T06:46:24.813Z,303.70
2019-04-20T06:47:21.277Z,303.85
2019-04-20T06:48:29.408Z,303.65
2019-04-20T06:50:20.033Z,303.78
2019-04-20T06:51:22.392Z,303.73
2019-04-20T06:52:26.211Z,303.57
2019-04-20T06:53:20.504Z,303.72
2019-04-20T06:54:11.433Z,303.62
2019-04-20T06:55:14.160Z,303.39
2019-04-20T06:56:24.322Z,303.54
2019-04-20T06:57:21.297Z,303.79
2019-04-20T06:58:36.435Z,303.48
2019-04-20T06:59:26.520Z,303.68
2019-04-20T07:00:30.560Z,303.68
2019-04-20T07:01:23.490Z,303.59
2019-04-20T07:02:23.516Z,303.41
2019-04-20T07:03:38.418Z,303.67
2019-04-20T07:04:39.791Z,303.64
2019-04-20T07:05:22.494Z,303.42
2019-04-20T07:06:36.410Z,303.60
2019-04-20T07:07:37.279Z,303.58
2019-04-20T07:08:33.540Z,303.77
2019-04-20T07:09:23.458Z,303.58
2019-04-20T07:11:23.893Z,303.71
2019-04-20T07:12:17.078Z,303.79
2019-04-20T07:13:12.829Z,303.46
2019-04-20T07:14:06.062Z,303.61
2019-04-20T07:15:19.507Z,303.46
2019-04-20T07:16:22.597Z,303.46
2019-04-20T07:18:37.573Z,291.73
2019-04-20T07:19:31.358Z,303.23
2019-04-20T07:20:35.138Z,303.61
2019-04-20T07:21:48.394Z,303.45
2019-04-20T07:22:33.773Z,303.44
2019-04-20T07:23:38.618Z,303.49
2019-04-20T07:24:35.099Z,303.60
2019-04-20T07:25:33.175Z,303.54
2019-04-20T07:26:38.636Z,303.52
2019-04-20T07:27:34.161Z,303.31
2019-04-20T07:28:35.350Z,303.51
2019-04-20T07:29:37.023Z,303.50
2019-04-20T07:30:32.470Z,303.40
2019-04-20T07:31:32.050Z,303.46
2019-04-20T07:32:23.407Z,303.47
2019-04-20T07:33:34.944Z,303.49
2019-04-20T07:34:26.606Z,303.48
2019-04-20T07:35:30.536Z,303.46
2019-04-20T07:36:32.412Z,303.41
2019-04-20T07:38:36.584Z,303.65
2019-04-20T07:39:33.100Z,303.59
2019-04-20T07:40:34.781Z,303.61
2019-04-20T07:41:43.560Z,303.68
2019-04-20T07:42:35.223Z,303.57
2019-04-20T07:43:34.858Z,303.84
2019-04-20T07:44:36.396Z,303.49
2019-04-20T07:45:37.619Z,303.75
2019-04-20T07:46:40.703Z,303.29
2019-04-20T07:47:34.701Z,303.51
2019-04-20T07:48:25.785Z,303.48
2019-04-20T07:49:32.617Z,303.57
2019-04-20T07:50:26.281Z,303.50
2019-04-20T07:51:19.393Z,303.93
2019-04-20T07:52:10.281Z,303.59
2019-04-20T07:53:28.390Z,303.46
2019-04-20T07:54:40.191Z,303.65
2019-04-20T07:55:39.096Z,303.44
2019-04-20T07:56:30.403Z,303.44
2019-04-20T07:57:25.669Z,303.38
2019-04-20T07:58:22.743Z,303.38
2019-04-20T07:59:22.257Z,303.39
2019-04-20T08:00:38.287Z,303.39
2019-04-20T08:01:38.473Z,303.70
2019-04-20T08:02:38.114Z,303.44
2019-04-20T08:03:33.679Z,303.62
2019-04-20T08:04:28.786Z,303.66
2019-04-20T08:05:22.783Z,303.68
2019-04-20T08:06:17.521Z,303.67
2019-04-20T08:07:12.387Z,303.40
2019-04-20T08:08:30.462Z,303.45
2019-04-20T08:09:21.956Z,303.21
2019-04-20T08:10:18.919Z,303.66
2019-04-20T08:11:32.095Z,303.25
2019-04-20T08:12:37.702Z,303.20
2019-04-20T08:14:30.670Z,303.36
2019-04-20T08:15:46.193Z,303.13
2019-04-20T08:16:41.014Z,303.27
2019-04-20T08:17:42.268Z,303.22
2019-04-20T08:18:35.096Z,303.34
2019-04-20T08:19:31.627Z,303.28
2019-04-20T08:20:27.995Z,303.25
2019-04-20T08:21:33.338Z,303.05
2019-04-20T08:22:35.467Z,303.34
2019-04-20T08:23:30.219Z,303.26
2019-04-20T08:24:27.888Z,303.20
2019-04-20T08:25:23.507Z,303.41
2019-04-20T08:26:18.208Z,303.21
2019-04-20T08:27:12.384Z,303.20
2019-04-20T08:28:17.813Z,303.35
2019-04-20T08:29:18.855Z,302.96
2019-04-20T08:30:23.052Z,303.14
2019-04-20T08:31:28.873Z,302.84
2019-04-20T08:32:30.717Z,303.16
2019-04-20T08:33:28.083Z,303.20
2019-04-20T08:34:31.182Z,303.25
2019-04-20T08:35:32.202Z,303.28
2019-04-20T08:36:36.021Z,302.96
2019-04-20T08:37:26.128Z,302.96
2019-04-20T08:38:57.815Z,303.12
2019-04-20T08:39:55.881Z,303.14
2019-04-20T08:40:36.054Z,303.20
2019-04-20T08:41:25.032Z,303.09
2019-04-20T08:42:30.717Z,303.26
2019-04-20T08:43:43.655Z,303.09
2019-04-20T08:44:47.050Z,303.22
2019-04-20T08:45:36.105Z,303.16
2019-04-20T08:46:37.814Z,303.14
2019-04-20T08:48:28.683Z,303.12
2019-04-20T08:49:36.127Z,303.05
2019-04-20T08:50:27.212Z,303.06
2019-04-20T08:51:34.694Z,303.22
2019-04-20T08:52:48.332Z,302.89
2019-04-20T08:53:30.687Z,302.69
2019-04-20T08:54:27.655Z,302.99
2019-04-20T08:55:26.646Z,302.97
2019-04-20T08:56:21.997Z,302.84
2019-04-20T08:57:09.141Z,302.89
2019-04-20T08:58:09.166Z,303.01
2019-04-20T08:59:09.341Z,302.86
2019-04-20T09:00:09.042Z,302.80
2019-04-20T09:01:10.277Z,302.64
2019-04-20T09:02:13.018Z,302.60
2019-04-20T09:03:17.316Z,302.79
2019-04-20T09:04:15.340Z,302.66
2019-04-20T09:05:18.645Z,302.52
2019-04-20T09:06:22.383Z,302.51
2019-04-20T09:07:17.517Z,302.76
2019-04-20T09:08:17.410Z,302.56
2019-04-20T09:09:40.324Z,302.60
2019-04-20T09:10:34.472Z,302.51
2019-04-20T09:11:25.029Z,302.77
2019-04-20T09:12:30.526Z,302.81
2019-04-20T09:13:20.818Z,302.76
2019-04-20T09:14:09.340Z,302.68
2019-04-20T09:15:08.272Z,302.92
2019-04-20T09:16:08.738Z,302.75
2019-04-20T09:17:11.328Z,302.69
2019-04-20T09:18:20.968Z,302.63
2019-04-20T09:19:12.950Z,302.83
2019-04-20T09:20:14.275Z,302.58
2019-04-20T09:21:23.375Z,302.66
2019-04-20T09:22:16.130Z,302.71
2019-04-20T09:23:23.881Z,302.64
2019-04-20T09:24:36.599Z,302.66
2019-04-20T09:26:26.936Z,302.49
2019-04-20T09:27:21.872Z,302.66
2019-04-20T09:28:19.829Z,302.61
2019-04-20T09:29:21.884Z,302.58
2019-04-20T09:30:25.657Z,302.53
2019-04-20T09:31:21.258Z,302.47
2019-04-20T09:32:23.193Z,302.40
2019-04-20T09:33:31.827Z,302.37
2019-04-20T09:34:24.650Z,302.25
2019-04-20T09:35:26.645Z,302.26
2019-04-20T09:36:24.217Z,302.03
2019-04-20T09:37:27.911Z,302.09
2019-04-20T09:38:22.136Z,302.36
2019-04-20T09:39:18.638Z,301.87
2019-04-20T09:40:29.294Z,302.13
2019-04-20T09:41:34.922Z,301.96
2019-04-20T09:42:08.315Z,301.94
2019-04-20T09:43:08.686Z,302.06
2019-04-20T09:44:07.329Z,301.99
2019-04-20T09:45:08.305Z,302.29
2019-04-20T09:46:08.878Z,302.12
2019-04-20T09:47:09.169Z,302.19
2019-04-20T09:48:16.616Z,302.10
2019-04-20T09:49:20.100Z,302.06
2019-04-20T09:50:25.054Z,302.15
2019-04-20T09:51:24.450Z,302.07
2019-04-20T09:52:17.335Z,302.01
2019-04-20T09:53:29.887Z,302.33
2019-04-20T09:54:26.750Z,302.30
2019-04-20T09:56:39.774Z,290.89
2019-04-20T09:57:50.176Z,301.73
2019-04-20T09:59:53.732Z,289.26
2019-04-20T10:02:13.188Z,297.10
2019-04-20T10:03:04.505Z,301.68
2019-04-20T10:04:03.549Z,301.97
2019-04-20T10:05:03.509Z,301.83
2019-04-20T10:06:03.521Z,302.03
2019-04-20T10:07:11.191Z,301.88
2019-04-20T10:08:06.761Z,301.70
2019-04-20T10:09:05.160Z,301.75
2019-04-20T10:10:23.899Z,301.82
2019-04-20T10:11:05.631Z,301.68
2019-04-20T10:12:03.809Z,301.60
2019-04-20T10:13:05.595Z,301.67
2019-04-20T10:14:03.980Z,301.78
2019-04-20T10:15:12.191Z,301.52
2019-04-20T10:16:04.364Z,301.42
2019-04-20T10:17:03.338Z,301.54
2019-04-20T10:18:12.148Z,301.48
2019-04-20T10:19:03.363Z,301.43
2019-04-20T10:20:24.360Z,301.47
2019-04-20T10:21:05.443Z,301.36
2019-04-20T10:22:04.560Z,301.27
2019-04-20T10:23:04.574Z,301.48
2019-04-20T10:24:03.269Z,301.38
2019-04-20T10:25:04.471Z,301.31
2019-04-20T10:26:04.648Z,301.49
2019-04-20T10:28:21.438Z,288.91
2019-04-20T10:29:21.538Z,300.89
2019-04-20T10:30:20.742Z,301.09
2019-04-20T10:31:20.433Z,301.06
2019-04-20T10:32:21.498Z,301.10
2019-04-20T10:33:21.724Z,301.10
2019-04-20T10:34:23.660Z,301.00
2019-04-20T10:35:21.076Z,300.87
2019-04-20T10:36:21.468Z,301.35
2019-04-20T10:37:20.153Z,300.96
2019-04-20T10:38:21.436Z,300.93
2019-04-20T10:39:20.396Z,301.03
2019-04-20T10:40:34.424Z,300.90
2019-04-20T10:41:33.913Z,300.99
2019-04-20T10:42:21.138Z,300.88
2019-04-20T10:43:20.037Z,301.12
2019-04-20T10:44:20.936Z,301.10
2019-04-20T10:45:21.285Z,301.01
2019-04-20T10:46:20.744Z,300.97
2019-04-20T10:47:21.131Z,300.90
2019-04-20T10:48:21.361Z,301.07
2019-04-20T10:49:19.973Z,301.02
2019-04-20T10:50:20.925Z,300.72
2019-04-20T10:51:19.958Z,301.02
2019-04-20T10:52:20.051Z,300.89
2019-04-20T10:53:19.975Z,301.02
2019-04-20T10:54:20.470Z,300.77
2019-04-20T10:55:20.766Z,300.85
2019-04-20T10:56:21.248Z,300.90
2019-04-20T10:57:19.870Z,300.94
2019-04-20T10:58:19.872Z,300.73
2019-04-20T10:59:19.862Z,300.85
2019-04-20T11:00:19.846Z,300.72
2019-04-20T11:01:19.975Z,300.66
2019-04-20T11:02:19.834Z,300.76
2019-04-20T11:03:19.810Z,300.84
2019-04-20T11:04:20.891Z,300.68
2019-04-20T11:05:20.412Z,300.70
2019-04-20T11:06:20.568Z,300.50
2019-04-20T11:07:20.735Z,300.66
2019-04-20T11:08:20.356Z,300.52
2019-04-20T11:09:20.709Z,300.69
2019-04-20T11:10:25.269Z,300.54
2019-04-20T11:11:26.500Z,300.42
2019-04-20T11:12:22.067Z,300.43
2019-04-20T11:13:19.709Z,300.25
2019-04-20T11:14:26.369Z,300.30
2019-04-20T11:15:20.975Z,300.56
2019-04-20T11:16:20.206Z,300.43
2019-04-20T11:17:20.426Z,300.44
2019-04-20T11:18:19.753Z,300.64
2019-04-20T11:19:21.126Z,300.29
2019-04-20T11:20:19.643Z,300.18
2019-04-20T11:21:19.705Z,300.16
2019-04-20T11:22:20.092Z,300.36
2019-04-20T11:23:20.371Z,300.22
2019-04-20T11:24:20.488Z,300.06
2019-04-20T11:25:19.925Z,300.01
2019-04-20T11:26:20.256Z,300.08
2019-04-20T11:27:20.540Z,300.23
2019-04-20T11:28:19.875Z,300.20
2019-04-20T11:29:20.105Z,299.96
2019-04-20T11:30:20.372Z,300.05
2019-04-20T11:31:20.031Z,299.93
2019-04-20T11:32:20.197Z,299.92
2019-04-20T11:33:20.380Z,299.83
2019-04-20T11:34:23.615Z,299.98
2019-04-20T11:35:27.822Z,300.07
2019-04-20T11:36:21.233Z,300.14
2019-04-20T11:37:19.458Z,300.08
2019-04-20T11:38:19.733Z,299.96
2019-04-20T11:39:20.813Z,300.06
2019-04-20T11:40:19.424Z,299.80
2019-04-20T11:41:25.659Z,300.09
2019-04-20T11:42:21.740Z,300.01
2019-04-20T11:43:19.826Z,299.92
2019-04-20T11:44:19.987Z,300.18
2019-04-20T11:45:20.570Z,300.34
2019-04-20T11:46:20.596Z,300.19
2019-04-20T11:47:19.391Z,300.25
2019-04-20T11:48:19.407Z,300.36
2019-04-20T11:49:19.498Z,300.08
2019-04-20T11:50:19.856Z,300.32
2019-04-20T11:51:19.326Z,300.16
2019-04-20T11:52:21.399Z,300.04
2019-04-20T11:53:19.459Z,299.95
2019-04-20T11:54:19.309Z,300.17
2019-04-20T11:55:20.176Z,300.01
2019-04-20T11:56:23.916Z,300.19
2019-04-20T11:57:21.333Z,300.22
2019-04-20T11:58:19.716Z,299.74
2019-04-20T11:59:19.258Z,299.95
2019-04-20T12:00:21.965Z,299.88
2019-04-20T12:01:22.558Z,299.93
2019-04-20T12:02:26.920Z,299.89
2019-04-20T12:03:27.965Z,300.07
2019-04-20T12:04:34.031Z,300.11
2019-04-20T12:05:31.583Z,300.01
2019-04-20T12:06:21.147Z,299.93
2019-04-20T12:07:19.284Z,300.09
2019-04-20T12:08:19.131Z,300.00
2019-04-20T12:09:19.141Z,300.02
2019-04-20T12:10:22.306Z,299.58
2019-04-20T12:11:30.392Z,299.94
2019-04-20T12:12:29.990Z,300.14
2019-04-20T12:13:20.547Z,300.25
2019-04-20T12:14:19.084Z,300.45
2019-04-20T12:15:19.065Z,300.92
2019-04-20T12:16:19.372Z,301.51
2019-04-20T12:17:19.651Z,301.69
2019-04-20T12:18:19.828Z,302.22
2019-04-20T12:19:19.068Z,302.84
2019-04-20T12:20:19.056Z,303.35
2019-04-20T12:21:19.217Z,303.56
2019-04-20T12:22:19.014Z,304.10
2019-04-20T12:23:20.127Z,304.02
2019-04-20T12:24:20.385Z,304.05
2019-04-20T12:25:20.380Z,303.92
2019-04-20T12:26:18.960Z,304.00
2019-04-20T12:27:18.960Z,304.35
2019-04-20T12:28:19.868Z,303.95
2019-04-20T12:29:19.561Z,303.54
2019-04-20T12:30:19.622Z,303.87
2019-04-20T12:31:22.800Z,303.25
2019-04-20T12:32:19.910Z,302.75
2019-04-20T12:33:18.873Z,302.67
2019-04-20T12:34:20.167Z,302.48
2019-04-20T12:35:20.062Z,302.18
2019-04-20T12:36:18.878Z,302.43
2019-04-20T12:37:18.903Z,302.64
2019-04-20T12:38:19.178Z,302.65
2019-04-20T12:39:19.299Z,302.63
2019-04-20T12:40:19.899Z,302.43
2019-04-20T12:41:31.125Z,302.70
2019-04-20T12:42:21.108Z,302.75
2019-04-20T12:43:19.071Z,302.64
2019-04-20T12:44:19.714Z,302.81
2019-04-20T12:45:19.646Z,302.59
2019-04-20T12:46:21.409Z,302.27
2019-04-20T12:47:19.630Z,302.25
2019-04-20T12:48:19.747Z,302.34
2019-04-20T12:49:19.887Z,301.62
2019-04-20T12:50:19.358Z,301.46
2019-04-20T12:51:19.635Z,301.03
2019-04-20T12:52:18.687Z,300.33
2019-04-20T12:53:18.688Z,299.86
2019-04-20T12:54:18.669Z,299.76
2019-04-20T12:55:18.844Z,299.81